Time;durP1;ratioP1;P1;durP2;ratioP2;P2;SDS_P1;SDS_P2;PMS_P1;PMS_P2;Temp;Humidity;BMP_temperature;BMP_pressure;BME280_temperature;BME280_humidity;BME280_pressure;Samples;Min_cycle;Max_cycle;Signal;HPM_P1;HPM_P2
2022/10/07 00:01:56;;;;;;;19.40;5.07;;;11.00;83.30;;;;;;5003620;28;20466;-75
2022/10/07 00:04:21;;;;;;;15.10;4.35;;;11.00;83.20;;;;;;5004225;28;20040;-74
2022/10/07 00:06:47;;;;;;;15.15;4.88;;;11.00;83.20;;;;;;5004670;28;20393;-74
2022/10/07 00:09:13;;;;;;;15.85;4.82;;;11.00;83.40;;;;;;5005353;28;20437;-75
2022/10/07 00:11:39;;;;;;;20.45;5.13;;;11.00;83.50;;;;;;5003636;28;20048;-74
2022/10/07 00:14:09;;;;;;;18.52;5.72;;;11.10;83.60;;;;;;5011499;28;20070;-74
2022/10/07 00:16:39;;;;;;;23.60;7.13;;;11.00;83.70;;;;;;5003566;28;20037;-74
2022/10/07 00:19:09;;;;;;;21.40;6.15;;;11.10;83.70;;;;;;5002836;28;20033;-74
2022/10/07 00:21:36;;;;;;;22.92;6.97;;;11.10;83.70;;;;;;5004694;28;20030;-75
2022/10/07 00:24:02;;;;;;;19.63;8.07;;;11.10;83.80;;;;;;5018853;28;20465;-75
2022/10/07 00:26:30;;;;;;;16.75;6.70;;;11.10;83.90;;;;;;5005938;28;20053;-74
2022/10/07 00:28:56;;;;;;;22.48;6.93;;;11.00;83.90;;;;;;5003998;28;20781;-74
2022/10/07 00:31:24;;;;;;;17.23;6.32;;;11.00;83.90;;;;;;5002633;28;20046;-73
2022/10/07 00:33:51;;;;;;;22.70;8.60;;;11.00;84.00;;;;;;5004472;28;20069;-73
2022/10/07 00:36:37;;;;;;;17.27;6.28;;;11.00;84.00;;;;;;5001648;28;20037;-75
2022/10/07 00:39:13;;;;;;;19.58;5.80;;;11.00;84.00;;;;;;5002127;28;20048;-75
2022/10/07 00:41:49;;;;;;;15.95;6.00;;;11.00;84.10;;;;;;5015482;28;20026;-74
2022/10/07 00:44:36;;;;;;;18.88;6.68;;;11.00;84.20;;;;;;4998880;28;20061;-74
2022/10/07 00:47:28;;;;;;;18.45;5.65;;;10.90;84.20;;;;;;5003151;28;20048;-75
2022/10/07 00:50:03;;;;;;;14.70;4.95;;;10.90;84.30;;;;;;4999668;28;20040;-75
2022/10/07 00:52:30;;;;;;;;;;;10.90;84.30;;;;;;5009220;28;20056;-75
2022/10/07 00:54:58;;;;;;;17.67;5.10;;;10.90;84.40;;;;;;5002649;28;19922;-75
2022/10/07 00:57:26;;;;;;;18.58;4.97;;;10.90;84.30;;;;;;5001452;28;20101;-74
2022/10/07 00:59:54;;;;;;;22.70;5.68;;;10.90;84.30;;;;;;5001955;28;20037;-75
2022/10/07 01:02:22;;;;;;;21.48;5.28;;;10.90;84.30;;;;;;5002824;28;20421;-74
2022/10/07 01:04:49;;;;;;;21.13;5.90;;;10.90;84.40;;;;;;5007692;28;20351;-74
2022/10/07 01:07:17;;;;;;;17.17;4.75;;;10.90;84.50;;;;;;5003066;28;20465;-75
2022/10/07 01:09:42;;;;;;;22.70;5.05;;;10.80;84.40;;;;;;5000202;28;20955;-75
2022/10/07 01:12:52;;;;;;;17.05;4.32;;;10.80;84.40;;;;;;4999560;28;20038;-75
2022/10/07 01:15:38;;;;;;;14.25;4.75;;;10.80;84.60;;;;;;4982469;28;20041;-74
2022/10/07 01:18:30;;;;;;;15.43;5.00;;;10.80;84.60;;;;;;5000948;28;20045;-74
2022/10/07 01:21:32;;;;;;;13.70;4.85;;;10.70;84.60;;;;;;5003799;28;20037;-74
2022/10/07 01:24:13;;;;;;;18.88;4.38;;;10.70;84.70;;;;;;5003179;28;20043;-74
2022/10/07 01:27:08;;;;;;;19.80;5.82;;;10.70;84.80;;;;;;5002794;28;20194;-74
2022/10/07 01:29:44;;;;;;;21.92;5.13;;;10.70;85.00;;;;;;4998792;28;20404;-75
2022/10/07 01:32:19;;;;;;;15.80;5.03;;;10.70;85.10;;;;;;5006557;28;20099;-74
2022/10/07 01:34:47;;;;;;;15.85;4.72;;;10.60;85.10;;;;;;5010019;28;20377;-74
2022/10/07 01:37:16;;;;;;;16.40;4.90;;;10.60;85.00;;;;;;5005175;28;20029;-74
2022/10/07 01:39:47;;;;;;;19.10;5.10;;;10.60;85.20;;;;;;5006900;28;20076;-73
2022/10/07 01:42:13;;;;;;;18.25;5.13;;;10.60;85.20;;;;;;5010536;28;20183;-75
2022/10/07 01:44:40;;;;;;;20.38;5.47;;;10.50;85.20;;;;;;5008229;28;20025;-75
2022/10/07 01:47:06;;;;;;;18.73;5.05;;;10.50;85.30;;;;;;5008983;28;20527;-75
2022/10/07 01:49:31;;;;;;;16.98;4.88;;;10.50;85.40;;;;;;5005997;28;20366;-74
2022/10/07 01:52:25;;;;;;;17.85;5.10;;;10.40;85.30;;;;;;5007129;28;20045;-75
2022/10/07 01:55:06;;;;;;;19.15;4.78;;;10.40;85.50;;;;;;4998251;28;20116;-73
2022/10/07 01:57:41;;;;;;;16.15;4.95;;;10.40;85.70;;;;;;5004526;28;20154;-74
2022/10/07 02:00:13;;;;;;;16.50;4.93;;;10.40;85.70;;;;;;5005687;28;20034;-74
2022/10/07 02:02:41;;;;;;;16.33;4.97;;;10.40;85.70;;;;;;5004984;28;20026;-74
2022/10/07 02:05:33;;;;;;;14.23;4.47;;;10.40;85.70;;;;;;5006072;28;20282;-75
2022/10/07 02:08:34;;;;;;;15.80;4.72;;;10.40;85.80;;;;;;5005622;28;20073;-74
2022/10/07 02:11:13;;;;;;;15.98;4.85;;;10.20;85.80;;;;;;4999233;28;20034;-73
2022/10/07 02:13:42;;;;;;;17.55;4.45;;;10.20;85.90;;;;;;4990778;28;20050;-73
2022/10/07 02:16:26;;;;;;;18.42;4.82;;;10.30;86.00;;;;;;5007009;28;20087;-74
2022/10/07 02:18:53;;;;;;;17.35;4.85;;;10.30;86.20;;;;;;5006128;28;20499;-74
2022/10/07 02:21:24;;;;;;;17.02;4.80;;;10.30;86.20;;;;;;5004506;28;20717;-74
2022/10/07 02:23:52;;;;;;;20.85;5.25;;;10.40;86.30;;;;;;5004599;28;20046;-75
2022/10/07 02:26:20;;;;;;;17.90;5.10;;;10.30;86.20;;;;;;5004936;28;20229;-75
2022/10/07 02:28:49;;;;;;;14.38;5.45;;;10.40;86.30;;;;;;5007225;28;20030;-75
2022/10/07 02:31:19;;;;;;;12.32;4.57;;;10.40;86.40;;;;;;5006071;28;20054;-74
2022/10/07 02:33:46;;;;;;;16.50;4.57;;;10.40;86.40;;;;;;5002848;28;20057;-74
2022/10/07 02:36:22;;;;;;;19.75;5.20;;;10.30;86.50;;;;;;5006246;28;20335;-75
2022/10/07 02:38:48;;;;;;;20.30;5.88;;;10.30;86.50;;;;;;5005582;28;20034;-75
2022/10/07 02:41:30;;;;;;;17.15;4.80;;;10.30;86.70;;;;;;5008337;28;20533;-74
2022/10/07 02:44:36;;;;;;;24.30;6.10;;;10.30;86.70;;;;;;5003578;28;20041;-75
2022/10/07 02:47:13;;;;;;;22.00;4.93;;;10.40;86.80;;;;;;5000618;28;20121;-74
2022/10/07 02:49:41;;;;;;;21.10;5.35;;;10.40;86.60;;;;;;5003671;28;20030;-74
2022/10/07 02:52:14;;;;;;;17.65;5.30;;;10.40;86.60;;;;;;5005863;28;20030;-74
2022/10/07 02:54:45;;;;;;;20.48;5.47;;;10.40;86.60;;;;;;5004790;28;20305;-75
2022/10/07 02:57:16;;;;;;;22.88;6.05;;;10.30;86.70;;;;;;5007486;28;20026;-76
2022/10/07 02:59:43;;;;;;;16.42;4.70;;;10.30;86.70;;;;;;5004352;28;20037;-75
2022/10/07 03:02:15;;;;;;;20.17;5.55;;;10.30;86.70;;;;;;5005897;28;20026;-76
2022/10/07 03:04:41;;;;;;;19.80;5.90;;;10.30;86.70;;;;;;4998036;28;20041;-75
2022/10/07 03:07:07;;;;;;;16.55;4.93;;;10.20;86.70;;;;;;5006607;28;20050;-75
2022/10/07 03:09:33;;;;;;;16.98;5.28;;;10.30;86.80;;;;;;5005757;28;20034;-75
2022/10/07 03:11:58;;;;;;;23.48;6.43;;;10.30;86.70;;;;;;5003428;28;20105;-75
2022/10/07 03:14:24;;;;;;;19.02;5.70;;;10.20;86.70;;;;;;5003557;28;20046;-75
2022/10/07 03:16:51;;;;;;;23.08;6.10;;;10.20;86.80;;;;;;5005467;28;20096;-73
2022/10/07 03:19:17;;;;;;;26.77;6.80;;;10.20;86.80;;;;;;5005255;28;20037;-75
2022/10/07 03:21:43;;;;;;;18.00;5.78;;;10.30;86.90;;;;;;5005088;28;20507;-75
2022/10/07 03:24:10;;;;;;;28.25;7.00;;;10.20;86.70;;;;;;5004076;28;20082;-75
2022/10/07 03:26:35;;;;;;;19.73;6.32;;;10.20;86.90;;;;;;5002893;28;20029;-75
2022/10/07 03:29:01;;;;;;;24.88;6.97;;;10.20;86.80;;;;;;5004459;28;20045;-75
2022/10/07 03:31:28;;;;;;;21.50;6.88;;;10.20;86.80;;;;;;5003896;28;20108;-74
2022/10/07 03:33:56;;;;;;;21.80;7.88;;;10.30;86.80;;;;;;5004354;28;20385;-74
2022/10/07 03:36:23;;;;;;;19.88;7.05;;;10.30;86.70;;;;;;4999892;28;20033;-74
2022/10/07 03:38:49;;;;;;;19.77;6.43;;;10.30;86.70;;;;;;5005068;28;20049;-74
2022/10/07 03:41:17;;;;;;;21.73;8.05;;;10.30;86.50;;;;;;5005782;28;20042;-74
2022/10/07 03:43:43;;;;;;;18.85;6.53;;;10.20;86.60;;;;;;5003863;28;20034;-74
2022/10/07 03:46:09;;;;;;;21.38;7.32;;;10.20;86.70;;;;;;5004536;28;20034;-74
2022/10/07 03:48:35;;;;;;;21.15;7.95;;;10.20;86.60;;;;;;4996876;28;20040;-75
2022/10/07 03:51:00;;;;;;;18.30;6.45;;;10.20;86.70;;;;;;5002978;28;20072;-74
2022/10/07 03:53:28;;;;;;;18.08;6.63;;;10.20;86.70;;;;;;5000108;28;20030;-76
2022/10/07 03:55:54;;;;;;;22.45;7.05;;;10.10;86.80;;;;;;5010745;28;20507;-76
2022/10/07 03:58:20;;;;;;;19.67;6.28;;;10.10;86.70;;;;;;5006387;28;20038;-76
2022/10/07 04:00:46;;;;;;;20.55;5.90;;;10.10;86.80;;;;;;5003069;28;20347;-75
2022/10/07 04:03:13;;;;;;;23.77;7.10;;;10.10;86.90;;;;;;5005591;28;20032;-74
2022/10/07 04:05:39;;;;;;;19.67;6.03;;;10.10;86.80;;;;;;5004791;28;20042;-74
2022/10/07 04:08:04;;;;;;;17.50;6.47;;;10.10;86.90;;;;;;5004668;28;20128;-75
2022/10/07 04:10:31;;;;;;;21.83;6.15;;;10.10;86.80;;;;;;5001946;28;21939;-75
2022/10/07 04:12:56;;;;;;;17.48;5.65;;;10.10;86.70;;;;;;5006713;28;20539;-73
2022/10/07 04:15:22;;;;;;;14.57;5.82;;;10.10;86.70;;;;;;5009225;28;20054;-73
2022/10/07 04:17:48;;;;;;;15.63;5.82;;;10.10;86.70;;;;;;5004729;28;20026;-74
2022/10/07 04:20:15;;;;;;;21.10;6.28;;;10.10;86.60;;;;;;5002290;28;20022;-73
2022/10/07 04:22:41;;;;;;;18.70;5.75;;;10.10;86.40;;;;;;5001801;28;20129;-73
2022/10/07 04:27:55;;;;;;;21.95;6.57;;;10.10;86.30;;;;;;5003678;28;20033;-75
2022/10/07 04:30:23;;;;;;;20.27;6.25;;;10.10;86.20;;;;;;4999886;28;20045;-73
2022/10/07 04:32:49;;;;;;;21.02;6.28;;;10.10;86.10;;;;;;4997458;28;20038;-73
2022/10/07 04:35:19;;;;;;;15.75;5.47;;;10.10;86.00;;;;;;5002883;28;20141;-76
2022/10/07 04:37:52;;;;;;;19.15;6.28;;;10.10;86.00;;;;;;5000832;28;20022;-75
2022/10/07 04:40:20;;;;;;;20.25;6.55;;;10.20;85.80;;;;;;5000876;28;20470;-75
2022/10/07 04:45:32;;;;;;;19.00;5.88;;;10.20;85.70;;;;;;4999811;28;20100;-75
2022/10/07 04:47:59;;;;;;;21.60;7.03;;;10.30;85.60;;;;;;4997794;28;20144;-76
2022/10/07 04:50:25;;;;;;;20.95;7.25;;;10.20;85.50;;;;;;5001296;28;20369;-75
2022/10/07 04:52:51;;;;;;;18.83;6.05;;;10.30;85.40;;;;;;5001244;28;20061;-75
2022/10/07 04:55:16;;;;;;;18.88;6.28;;;10.40;85.50;;;;;;5002580;28;20100;-75
2022/10/07 04:57:42;;;;;;;20.05;6.38;;;10.30;85.40;;;;;;5001850;28;20061;-74
2022/10/07 05:00:08;;;;;;;31.58;6.60;;;10.40;85.30;;;;;;5001769;28;20366;-75
2022/10/07 05:02:34;;;;;;;26.45;6.47;;;10.40;85.10;;;;;;5001916;28;20466;-74
2022/10/07 05:05:00;;;;;;;18.52;5.97;;;10.30;85.00;;;;;;5001113;28;20037;-75
2022/10/07 05:07:26;;;;;;;16.30;5.47;;;10.30;84.90;;;;;;5000691;28;20049;-74
2022/10/07 05:09:52;;;;;;;18.23;6.05;;;10.30;84.90;;;;;;5001832;28;20049;-75
2022/10/07 05:12:17;;;;;;;29.70;7.22;;;10.30;84.80;;;;;;5003143;28;20032;-76
2022/10/07 05:14:44;;;;;;;23.17;6.78;;;10.20;84.80;;;;;;4999502;28;20092;-74
2022/10/07 05:17:10;;;;;;;18.60;6.22;;;10.20;84.80;;;;;;4998420;28;20038;-73
2022/10/07 05:19:35;;;;;;;20.35;6.38;;;10.10;85.00;;;;;;4997895;28;20056;-74
2022/10/07 05:22:04;;;;;;;23.40;6.82;;;10.10;85.10;;;;;;5002278;28;20316;-74
2022/10/07 05:24:30;;;;;;;17.80;6.32;;;10.10;85.20;;;;;;4999813;28;20036;-74
2022/10/07 05:26:55;;;;;;;13.93;5.93;;;10.00;85.30;;;;;;4996561;28;20038;-74
2022/10/07 05:29:22;;;;;;;20.50;7.35;;;10.00;85.30;;;;;;4999051;28;20425;-74
2022/10/07 05:31:50;;;;;;;18.38;6.53;;;9.90;85.50;;;;;;5011600;28;20046;-75
2022/10/07 05:34:16;;;;;;;24.63;7.88;;;9.90;85.70;;;;;;5010159;28;20474;-73
2022/10/07 05:36:42;;;;;;;19.92;6.68;;;9.90;85.70;;;;;;5003113;28;20068;-74
2022/10/07 05:39:09;;;;;;;24.50;7.28;;;9.90;85.70;;;;;;5004670;28;20208;-74
2022/10/07 05:41:35;;;;;;;21.55;6.82;;;9.90;85.80;;;;;;5002171;28;20045;-73
2022/10/07 05:44:00;;;;;;;23.20;6.47;;;9.90;85.70;;;;;;5001940;28;20037;-73
2022/10/07 05:46:26;;;;;;;18.60;6.10;;;9.80;85.70;;;;;;5004160;28;20034;-73
2022/10/07 05:48:53;;;;;;;20.40;7.10;;;9.90;85.80;;;;;;5001817;28;20104;-74
2022/10/07 05:51:20;;;;;;;20.63;6.88;;;9.80;85.70;;;;;;5006774;28;20160;-74
2022/10/07 05:53:46;;;;;;;23.98;7.18;;;9.80;85.60;;;;;;5003145;28;20050;-75
2022/10/07 05:56:20;;;;;;;22.10;7.00;;;9.80;85.70;;;;;;4999682;28;20026;-74
2022/10/07 05:58:46;;;;;;;21.02;7.15;;;9.80;85.60;;;;;;5002975;28;20038;-74
2022/10/07 06:01:17;;;;;;;18.95;6.28;;;9.80;85.70;;;;;;5005463;28;20437;-74
2022/10/07 06:03:51;;;;;;;21.33;6.78;;;9.80;85.70;;;;;;5001996;28;20523;-75
2022/10/07 06:06:18;;;;;;;22.73;7.22;;;9.90;85.60;;;;;;5005592;28;20041;-74
2022/10/07 06:08:44;;;;;;;19.88;6.00;;;9.90;85.50;;;;;;4999456;28;20034;-74
2022/10/07 06:13:57;;;;;;;25.30;6.38;;;9.90;85.50;;;;;;5002899;28;20045;-75
2022/10/07 06:16:23;;;;;;;23.17;6.10;;;9.90;85.50;;;;;;5004872;28;20034;-75
2022/10/07 06:18:51;;;;;;;20.85;6.70;;;9.90;85.40;;;;;;5003889;28;20070;-75
2022/10/07 06:21:18;;;;;;;20.58;6.00;;;10.00;85.50;;;;;;5005729;28;20018;-75
2022/10/07 06:23:50;;;;;;;22.15;6.88;;;10.00;85.50;;;;;;5004029;28;20045;-77
2022/10/07 06:26:15;;;;;;;25.98;6.22;;;10.10;85.30;;;;;;4998056;28;20307;-75
2022/10/07 06:28:41;;;;;;;22.58;6.57;;;10.10;85.20;;;;;;5011336;28;20461;-73
2022/10/07 06:31:09;;;;;;;24.40;7.00;;;10.10;85.20;;;;;;5006690;28;20516;-75
2022/10/07 06:33:35;;;;;;;18.80;6.82;;;10.20;85.10;;;;;;5013229;28;20026;-74
2022/10/07 06:36:02;;;;;;;23.77;7.15;;;10.20;85.10;;;;;;5008098;28;20401;-74
2022/10/07 06:38:28;;;;;;;22.00;7.05;;;10.20;84.90;;;;;;5007519;28;20115;-74
2022/10/07 06:40:57;;;;;;;18.45;7.05;;;10.30;84.90;;;;;;5007939;28;20022;-76
2022/10/07 06:43:25;;;;;;;23.42;7.00;;;10.30;84.70;;;;;;5007280;28;20034;-76
2022/10/07 06:45:51;;;;;;;22.35;7.75;;;10.30;84.70;;;;;;5001667;28;20026;-74
2022/10/07 06:48:17;;;;;;;22.92;6.85;;;10.40;84.60;;;;;;5007297;28;20112;-75
2022/10/07 06:50:50;;;;;;;20.98;6.60;;;10.40;84.60;;;;;;5007591;28;20042;-74
2022/10/07 06:53:16;;;;;;;22.08;7.32;;;10.40;84.50;;;;;;5003647;28;20083;-74
2022/10/07 06:55:42;;;;;;;19.17;6.57;;;10.40;84.50;;;;;;5009789;28;20054;-75
2022/10/07 06:58:07;;;;;;;21.55;7.25;;;10.50;84.60;;;;;;5003829;28;20044;-74
2022/10/07 07:00:33;;;;;;;27.02;8.77;;;10.50;84.50;;;;;;5006664;28;20357;-74
2022/10/07 07:03:00;;;;;;;21.38;7.60;;;10.50;84.60;;;;;;5012541;28;20077;-74
2022/10/07 07:05:34;;;;;;;22.73;8.05;;;10.50;84.40;;;;;;5001466;28;20339;-75
2022/10/07 07:07:59;;;;;;;23.10;7.50;;;10.60;84.20;;;;;;5002754;28;20409;-74
2022/10/07 07:10:26;;;;;;;27.52;7.40;;;10.60;84.30;;;;;;5002996;28;20030;-75
2022/10/07 07:12:53;;;;;;;24.60;7.43;;;10.60;84.20;;;;;;5006334;28;20084;-74
2022/10/07 07:15:19;;;;;;;17.90;7.03;;;10.70;84.10;;;;;;5001813;28;20369;-76
2022/10/07 07:17:44;;;;;;;24.13;7.30;;;10.70;84.00;;;;;;5006076;28;20117;-76
2022/10/07 07:20:11;;;;;;;24.67;9.00;;;10.80;83.80;;;;;;5002894;28;20439;-74
2022/10/07 07:22:37;;;;;;;22.80;7.88;;;10.80;83.70;;;;;;5004499;28;20134;-78
2022/10/07 07:25:03;;;;;;;22.20;6.68;;;10.90;83.60;;;;;;5002087;28;20073;-74
2022/10/07 07:27:28;;;;;;;20.45;8.18;;;11.00;83.40;;;;;;5004200;28;20109;-75
2022/10/07 07:29:56;;;;;;;20.30;6.65;;;11.10;83.30;;;;;;5006478;28;20112;-74
2022/10/07 07:32:22;;;;;;;23.70;7.32;;;11.10;83.00;;;;;;5003744;28;20046;-74
2022/10/07 07:34:48;;;;;;;18.70;6.57;;;11.20;82.90;;;;;;5001355;28;20038;-73
2022/10/07 07:37:14;;;;;;;19.30;7.35;;;11.30;82.60;;;;;;5006029;28;20157;-74
2022/10/07 07:39:41;;;;;;;24.38;7.90;;;11.40;82.20;;;;;;5008622;28;20394;-74
2022/10/07 07:42:07;;;;;;;18.23;6.70;;;11.40;82.00;;;;;;4998886;28;20049;-74
2022/10/07 07:44:35;;;;;;;21.73;7.05;;;11.50;81.90;;;;;;5004313;28;20037;-75
2022/10/07 07:47:01;;;;;;;17.65;6.75;;;11.60;81.50;;;;;;5004593;28;20026;-74
2022/10/07 07:49:30;;;;;;;15.32;6.22;;;11.70;81.30;;;;;;5004972;28;20555;-75
2022/10/07 07:51:57;;;;;;;22.65;7.07;;;11.80;81.00;;;;;;5004110;28;20128;-73
2022/10/07 07:54:26;;;;;;;34.45;7.50;;;12.00;80.80;;;;;;5005509;28;20042;-74
2022/10/07 07:56:56;;;;;;;18.90;6.95;;;12.10;80.60;;;;;;5009979;28;20026;-73
2022/10/07 07:59:24;;;;;;;20.67;5.97;;;12.30;80.00;;;;;;5004633;28;20026;-74
2022/10/07 08:01:50;;;;;;;19.60;6.35;;;12.50;79.30;;;;;;5001767;28;20103;-76
2022/10/07 08:04:15;;;;;;;21.88;6.05;;;12.60;78.70;;;;;;4981514;28;20526;-74
2022/10/07 08:06:42;;;;;;;18.73;6.10;;;12.70;78.10;;;;;;5004879;28;20030;-76
2022/10/07 08:09:07;;;;;;;18.58;5.80;;;13.00;77.20;;;;;;5013525;28;20033;-75
2022/10/07 08:11:33;;;;;;;19.27;6.30;;;13.20;76.70;;;;;;5003581;28;20084;-75
2022/10/07 08:13:59;;;;;;;19.58;5.43;;;13.40;76.30;;;;;;5003694;28;20069;-75
2022/10/07 08:16:27;;;;;;;17.05;5.10;;;13.60;75.70;;;;;;5001655;28;20026;-74
2022/10/07 08:18:54;;;;;;;17.98;5.88;;;13.70;74.80;;;;;;5020797;28;20410;-75
2022/10/07 08:21:23;;;;;;;16.48;5.38;;;13.80;74.60;;;;;;5004672;28;20230;-74
2022/10/07 08:23:53;;;;;;;15.02;4.97;;;13.90;74.50;;;;;;5001411;28;20192;-76
2022/10/07 08:26:19;;;;;;;20.80;5.32;;;14.10;74.00;;;;;;5004827;28;20414;-74
2022/10/07 08:28:47;;;;;;;14.70;4.80;;;14.30;73.20;;;;;;5003276;28;20061;-74
2022/10/07 08:31:16;;;;;;;19.13;5.90;;;14.30;73.10;;;;;;4994839;28;20046;-74
2022/10/07 08:33:43;;;;;;;15.77;5.00;;;14.60;72.60;;;;;;5001288;28;20038;-74
2022/10/07 08:36:22;;;;;;;19.27;5.40;;;14.70;72.50;;;;;;5001960;28;20613;-75
2022/10/07 08:38:48;;;;;;;18.38;5.18;;;14.80;71.40;;;;;;5004303;28;20092;-75
2022/10/07 08:41:24;;;;;;;17.50;5.13;;;14.80;71.80;;;;;;5000637;28;20034;-75
2022/10/07 08:43:51;;;;;;;13.43;4.63;;;15.00;71.60;;;;;;5006443;28;20029;-76
2022/10/07 08:46:30;;;;;;;14.85;5.00;;;15.10;70.50;;;;;;5002005;28;20415;-73
2022/10/07 08:49:02;;;;;;;15.95;4.95;;;15.20;70.30;;;;;;5000436;28;20069;-73
2022/10/07 08:51:37;;;;;;;17.42;4.78;;;15.30;69.80;;;;;;5002361;28;20034;-74
2022/10/07 08:54:04;;;;;;;17.13;6.10;;;15.40;70.20;;;;;;5000544;28;20054;-76
2022/10/07 08:56:32;;;;;;;17.90;5.38;;;15.50;69.90;;;;;;5002726;28;20049;-76
2022/10/07 08:59:27;;;;;;;17.67;4.63;;;15.70;69.50;;;;;;5002846;28;20486;-75
2022/10/07 09:02:14;;;;;;;15.85;4.82;;;15.80;69.10;;;;;;4992001;28;20034;-75
2022/10/07 09:05:01;;;;;;;13.52;4.18;;;16.10;68.60;;;;;;4998523;28;20069;-74
2022/10/07 09:07:32;;;;;;;16.85;5.50;;;16.20;67.80;;;;;;4994513;28;20081;-75
2022/10/07 09:10:07;;;;;;;19.27;5.00;;;16.40;66.80;;;;;;5004724;28;20026;-75
2022/10/07 09:13:08;;;;;;;14.85;4.68;;;16.50;66.40;;;;;;4996786;28;20030;-76
2022/10/07 09:16:09;;;;;;;18.45;4.72;;;16.50;67.00;;;;;;4987287;28;20042;-76
2022/10/07 09:18:43;;;;;;;14.50;4.97;;;16.60;66.20;;;;;;5000488;28;20037;-73
2022/10/07 09:21:35;;;;;;;15.40;4.95;;;16.80;66.50;;;;;;5007417;28;20026;-75
2022/10/07 09:24:27;;;;;;;12.00;4.30;;;17.00;65.00;;;;;;5002855;28;20064;-76
2022/10/07 09:26:56;;;;;;;16.17;5.35;;;17.30;65.20;;;;;;5008761;28;20030;-75
2022/10/07 09:29:26;;;;;;;16.42;4.90;;;17.20;64.30;;;;;;5017756;28;20062;-76
2022/10/07 09:31:52;;;;;;;17.52;5.10;;;17.30;65.10;;;;;;5003047;28;20567;-75
2022/10/07 09:34:22;;;;;;;19.65;5.38;;;17.40;63.80;;;;;;5009341;28;20049;-75
2022/10/07 09:37:15;;;;;;;16.98;5.00;;;17.50;63.30;;;;;;5003519;28;20034;-74
2022/10/07 09:39:42;;;;;;;13.73;4.35;;;17.50;63.00;;;;;;5002268;28;20125;-74
2022/10/07 09:42:28;;;;;;;14.95;4.57;;;17.60;63.30;;;;;;5002113;28;20163;-74
2022/10/07 09:44:56;;;;;;;16.40;4.28;;;17.80;62.10;;;;;;5006649;28;20030;-75
2022/10/07 09:47:29;;;;;;;18.67;4.22;;;17.70;61.80;;;;;;5004902;28;20361;-74
2022/10/07 09:49:58;;;;;;;15.30;4.18;;;17.80;62.80;;;;;;5002210;28;20026;-75
2022/10/07 09:52:30;;;;;;;17.25;4.75;;;17.90;62.90;;;;;;5011829;28;20064;-75
2022/10/07 09:55:31;;;;;;;15.38;4.43;;;18.10;62.00;;;;;;5007942;28;20038;-77
2022/10/07 09:58:02;;;;;;;21.08;4.82;;;18.10;61.30;;;;;;5032518;28;20033;-78
2022/10/07 10:00:29;;;;;;;14.15;3.78;;;18.20;61.10;;;;;;5003620;28;20050;-76
2022/10/07 10:03:06;;;;;;;15.95;4.10;;;18.30;62.20;;;;;;5008040;28;20046;-75
2022/10/07 10:05:34;;;;;;;16.63;4.15;;;18.30;61.10;;;;;;4985425;28;20081;-73
2022/10/07 10:08:18;;;;;;;17.08;4.38;;;18.50;60.80;;;;;;4987685;28;20117;-75
2022/10/07 10:11:00;;;;;;;16.85;4.43;;;18.60;60.70;;;;;;5005237;28;20021;-75
2022/10/07 10:13:30;;;;;;;12.93;3.58;;;18.70;59.40;;;;;;4988952;28;20091;-75
2022/10/07 10:15:56;;;;;;;15.80;4.40;;;18.90;60.10;;;;;;5002335;28;20053;-75
2022/10/07 10:18:33;;;;;;;12.88;3.78;;;19.00;59.40;;;;;;5004488;28;20113;-76
2022/10/07 10:21:20;;;;;;;14.32;3.65;;;19.10;58.90;;;;;;4985209;28;20026;-75
2022/10/07 10:23:52;;;;;;;12.32;3.20;;;19.00;58.70;;;;;;4998556;28;20049;-76
2022/10/07 10:26:28;;;;;;;16.58;3.88;;;19.10;58.60;;;;;;5010140;28;20131;-77
2022/10/07 10:29:08;;;;;;;12.15;3.63;;;19.10;58.50;;;;;;5007496;28;20064;-75
2022/10/07 10:31:49;;;;;;;16.13;4.20;;;19.10;58.50;;;;;;4997389;28;20049;-76
2022/10/07 10:34:34;;;;;;;18.50;4.93;;;19.20;58.00;;;;;;5004769;28;20470;-75
2022/10/07 10:37:19;;;;;;;;;;;19.20;58.10;;;;;;5007287;28;20046;-73
2022/10/07 10:40:15;;;;;;;15.32;3.83;;;19.40;58.00;;;;;;4994752;28;19948;-74
2022/10/07 10:42:47;;;;;;;16.75;4.18;;;19.50;57.50;;;;;;4991035;28;20061;-74
2022/10/07 10:45:47;;;;;;;14.52;4.10;;;19.30;57.50;;;;;;4995624;28;20061;-76
2022/10/07 10:48:42;;;;;;;15.70;3.80;;;19.30;57.10;;;;;;4998874;28;20046;-75
2022/10/07 10:51:45;;;;;;;15.20;3.65;;;19.30;57.40;;;;;;4992005;28;20032;-74
2022/10/07 10:54:45;;;;;;;11.82;3.30;;;19.50;57.70;;;;;;5008438;28;20405;-74
2022/10/07 10:57:30;;;;;;;15.15;3.35;;;19.50;57.50;;;;;;4993688;28;20060;-74
2022/10/07 11:00:12;;;;;;;14.50;4.30;;;19.40;57.30;;;;;;4994125;28;20518;-74
2022/10/07 11:02:37;;;;;;;12.05;3.20;;;19.50;57.10;;;;;;4974666;28;20414;-74
2022/10/07 11:05:12;;;;;;;10.48;3.17;;;19.60;57.80;;;;;;4987352;28;20069;-74
2022/10/07 11:07:54;;;;;;;12.88;3.55;;;19.70;57.50;;;;;;4991174;28;20544;-75
2022/10/07 11:10:25;;;;;;;11.15;3.80;;;20.00;57.20;;;;;;4990308;28;20037;-76
2022/10/07 11:13:10;;;;;;;13.18;3.38;;;20.10;55.40;;;;;;4999533;28;20455;-75
2022/10/07 11:15:46;;;;;;;14.05;3.63;;;20.00;55.60;;;;;;4991897;28;20498;-74
2022/10/07 11:18:25;;;;;;;17.95;3.63;;;20.00;56.30;;;;;;4997108;28;20053;-74
2022/10/07 11:20:51;;;;;;;10.27;2.97;;;20.10;55.20;;;;;;4994324;28;20026;-73
2022/10/07 11:23:40;;;;;;;13.63;2.70;;;20.00;55.20;;;;;;4994993;28;20030;-73
2022/10/07 11:26:37;;;;;;;11.40;2.83;;;20.10;55.10;;;;;;4989501;28;20054;-74
2022/10/07 11:29:16;;;;;;;13.68;2.67;;;20.10;54.10;;;;;;4993231;28;20093;-73
2022/10/07 11:31:48;;;;;;;17.00;3.13;;;20.10;54.00;;;;;;4996866;28;20053;-74
2022/10/07 11:34:52;;;;;;;10.50;2.95;;;20.10;54.40;;;;;;5008828;28;20349;-74
2022/10/07 11:37:37;;;;;;;14.82;2.90;;;20.10;54.90;;;;;;4993207;28;20070;-74
2022/10/07 11:40:06;;;;;;;13.35;2.72;;;20.10;54.50;;;;;;4992367;28;20065;-74
2022/10/07 11:43:07;;;;;;;10.95;2.83;;;20.10;54.90;;;;;;4994682;28;20034;-75
2022/10/07 11:45:48;;;;;;;10.93;2.50;;;20.10;55.20;;;;;;4992693;28;20604;-74
2022/10/07 11:48:21;;;;;;;14.25;3.00;;;20.40;55.30;;;;;;4995989;28;20038;-74
2022/10/07 11:51:01;;;;;;;17.65;3.55;;;20.40;54.30;;;;;;4993279;28;20030;-74
2022/10/07 11:53:30;;;;;;;8.52;2.60;;;20.40;53.80;;;;;;4991068;28;20038;-74
2022/10/07 11:56:12;;;;;;;10.35;2.80;;;20.40;54.00;;;;;;4993630;28;20560;-76
2022/10/07 11:58:38;;;;;;;14.77;2.72;;;20.40;53.70;;;;;;4985287;28;20068;-75
2022/10/07 12:01:29;;;;;;;11.65;2.75;;;20.50;54.30;;;;;;5006329;28;20373;-76
2022/10/07 12:04:21;;;;;;;8.90;2.97;;;20.60;54.20;;;;;;4994904;28;20036;-76
2022/10/07 12:07:24;;;;;;;13.27;3.33;;;20.60;53.20;;;;;;4994591;28;20041;-75
2022/10/07 12:10:08;;;;;;;9.35;2.60;;;20.50;53.20;;;;;;4969912;28;20044;-75
2022/10/07 12:12:43;;;;;;;11.05;2.92;;;20.50;53.10;;;;;;4994011;28;20073;-76
2022/10/07 12:15:27;;;;;;;9.07;2.55;;;20.50;53.10;;;;;;4994866;28;20057;-75
2022/10/07 12:18:22;;;;;;;10.73;2.65;;;20.40;53.50;;;;;;5016404;28;20030;-75
2022/10/07 12:20:51;;;;;;;10.55;2.50;;;20.50;53.50;;;;;;4995634;28;20056;-73
2022/10/07 12:23:17;;;;;;;14.38;2.78;;;20.50;52.90;;;;;;5004655;28;20150;-73
2022/10/07 12:25:45;;;;;;;10.00;3.33;;;20.50;53.20;;;;;;5011030;28;20195;-73
2022/10/07 12:28:35;;;;;;;12.68;2.95;;;20.50;53.60;;;;;;5003317;28;20065;-75
2022/10/07 12:31:26;;;;;;;12.73;2.80;;;20.60;54.10;;;;;;4991420;28;20030;-75
2022/10/07 12:34:08;;;;;;;11.90;3.25;;;20.60;52.70;;;;;;5002848;28;20124;-74
2022/10/07 12:36:40;;;;;;;13.60;2.72;;;20.60;53.40;;;;;;5001365;28;20089;-74
2022/10/07 12:39:08;;;;;;;11.35;3.10;;;20.60;52.60;;;;;;5000412;28;20041;-72
2022/10/07 12:41:41;;;;;;;10.68;2.67;;;20.70;53.20;;;;;;5008139;28;20485;-75
2022/10/07 12:44:07;;;;;;;11.32;2.78;;;20.80;53.10;;;;;;5005986;28;20123;-75
2022/10/07 12:46:56;;;;;;;10.07;2.65;;;20.90;52.70;;;;;;5003522;28;20149;-74
2022/10/07 12:49:36;;;;;;;11.32;2.55;;;20.90;52.80;;;;;;5002891;28;20477;-76
2022/10/07 12:52:15;;;;;;;14.23;3.00;;;20.80;52.40;;;;;;5000303;28;20030;-74
2022/10/07 12:54:55;;;;;;;11.23;2.50;;;20.70;53.00;;;;;;5003946;28;20044;-75
2022/10/07 12:57:27;;;;;;;8.35;2.55;;;20.50;52.90;;;;;;5003979;28;20041;-76
2022/10/07 13:00:13;;;;;;;12.30;2.83;;;20.00;54.00;;;;;;5002924;28;20065;-74
2022/10/07 13:03:09;;;;;;;11.75;2.28;;;19.80;53.70;;;;;;5000946;28;20528;-75
2022/10/07 13:06:10;;;;;;;9.75;2.60;;;19.80;54.40;;;;;;5003006;28;20112;-75
2022/10/07 13:08:48;;;;;;;9.20;2.72;;;20.10;54.10;;;;;;5002648;28;20112;-75
2022/10/07 13:11:16;;;;;;;9.95;2.38;;;20.20;53.70;;;;;;5008991;28;20087;-75
2022/10/07 13:14:05;;;;;;;10.18;2.53;;;20.10;53.40;;;;;;5001725;28;20026;-75
2022/10/07 13:17:15;;;;;;;11.40;2.33;;;19.90;53.80;;;;;;5002454;28;20096;-77